sensor_id;sensor_type;location;lat;lon;timestamp;pressure;altitude;pressure_sealevel;temperature;humidity
26083;BME280;13848;49.018;12.078;2024-03-29T00:01:48;96422.50;;;4.27;86.02
26083;BME280;13848;49.018;12.078;2024-03-29T00:04:14;96423.31;;;4.28;86.65
26083;BME280;13848;49.018;12.078;2024-03-29T00:06:40;96414.31;;;4.29;86.07
26083;BME280;13848;49.018;12.078;2024-03-29T00:09:06;96427.47;;;4.24;87.23
26083;BME280;13848;49.018;12.078;2024-03-29T00:11:32;96429.06;;;4.32;86.35
26083;BME280;13848;49.018;12.078;2024-03-29T00:13:58;96417.25;;;4.14;87.04
26083;BME280;13848;49.018;12.078;2024-03-29T00:16:25;96412.72;;;4.15;87.00
26083;BME280;13848;49.018;12.078;2024-03-29T00:18:51;96413.34;;;4.10;87.49
26083;BME280;13848;49.018;12.078;2024-03-29T00:21:17;96416.78;;;4.17;87.56
26083;BME280;13848;49.018;12.078;2024-03-29T00:23:43;96406.13;;;4.17;87.45
26083;BME280;13848;49.018;12.078;2024-03-29T00:26:09;96410.09;;;4.08;88.09
26083;BME280;13848;49.018;12.078;2024-03-29T00:28:35;96408.19;;;4.15;87.88
26083;BME280;13848;49.018;12.078;2024-03-29T00:31:01;96405.53;;;4.15;88.24
26083;BME280;13848;49.018;12.078;2024-03-29T00:33:28;96409.19;;;4.21;87.63
26083;BME280;13848;49.018;12.078;2024-03-29T00:35:54;96401.56;;;4.31;87.40
26083;BME280;13848;49.018;12.078;2024-03-29T00:38:20;96398.34;;;4.16;88.39
26083;BME280;13848;49.018;12.078;2024-03-29T00:40:46;96406.31;;;4.29;87.22
26083;BME280;13848;49.018;12.078;2024-03-29T00:43:12;96401.16;;;4.27;88.59
26083;BME280;13848;49.018;12.078;2024-03-29T00:45:38;96416.31;;;4.34;88.33
26083;BME280;13848;49.018;12.078;2024-03-29T00:48:04;96413.31;;;4.23;88.23
26083;BME280;13848;49.018;12.078;2024-03-29T00:50:31;96407.03;;;4.43;87.39
26083;BME280;13848;49.018;12.078;2024-03-29T00:52:57;96399.94;;;4.30;88.71
26083;BME280;13848;49.018;12.078;2024-03-29T00:55:23;96404.78;;;4.02;89.38
26083;BME280;13848;49.018;12.078;2024-03-29T00:57:49;96396.31;;;4.18;89.30
26083;BME280;13848;49.018;12.078;2024-03-29T01:00:15;96388.00;;;4.33;88.29
26083;BME280;13848;49.018;12.078;2024-03-29T01:02:41;96399.31;;;4.28;88.68
26083;BME280;13848;49.018;12.078;2024-03-29T01:05:08;96404.91;;;4.20;88.93
26083;BME280;13848;49.018;12.078;2024-03-29T01:07:35;96393.19;;;4.21;89.30
26083;BME280;13848;49.018;12.078;2024-03-29T01:10:01;96381.44;;;4.35;88.32
26083;BME280;13848;49.018;12.078;2024-03-29T01:12:27;96358.47;;;4.27;88.03
26083;BME280;13848;49.018;12.078;2024-03-29T01:14:53;96352.63;;;4.44;88.31
26083;BME280;13848;49.018;12.078;2024-03-29T01:17:20;96359.69;;;4.32;87.72
26083;BME280;13848;49.018;12.078;2024-03-29T01:19:46;96358.09;;;4.24;88.35
26083;BME280;13848;49.018;12.078;2024-03-29T01:22:12;96349.00;;;4.32;87.59
26083;BME280;13848;49.018;12.078;2024-03-29T01:24:39;96357.34;;;4.10;88.77
26083;BME280;13848;49.018;12.078;2024-03-29T01:27:05;96332.38;;;3.98;89.93
26083;BME280;13848;49.018;12.078;2024-03-29T01:29:31;96335.50;;;4.26;88.91
26083;BME280;13848;49.018;12.078;2024-03-29T01:31:57;96340.44;;;4.23;88.01
26083;BME280;13848;49.018;12.078;2024-03-29T01:34:23;96330.63;;;4.17;88.82
26083;BME280;13848;49.018;12.078;2024-03-29T01:36:49;96322.63;;;4.17;88.97
26083;BME280;13848;49.018;12.078;2024-03-29T01:39:15;96316.22;;;4.24;87.82
26083;BME280;13848;49.018;12.078;2024-03-29T01:41:42;96331.03;;;4.20;87.70
26083;BME280;13848;49.018;12.078;2024-03-29T01:44:08;96333.75;;;4.14;88.20
26083;BME280;13848;49.018;12.078;2024-03-29T01:46:36;96329.16;;;4.21;87.55
26083;BME280;13848;49.018;12.078;2024-03-29T01:49:02;96334.34;;;4.16;87.45
26083;BME280;13848;49.018;12.078;2024-03-29T01:51:29;96345.19;;;4.21;87.34
26083;BME280;13848;49.018;12.078;2024-03-29T01:53:55;96342.91;;;4.24;86.98
26083;BME280;13848;49.018;12.078;2024-03-29T01:56:22;96341.66;;;4.27;86.93
26083;BME280;13848;49.018;12.078;2024-03-29T01:58:51;96352.31;;;4.27;86.90
26083;BME280;13848;49.018;12.078;2024-03-29T02:01:18;96349.16;;;4.12;87.67
26083;BME280;13848;49.018;12.078;2024-03-29T02:03:45;96335.97;;;4.17;87.53
26083;BME280;13848;49.018;12.078;2024-03-29T02:06:12;96327.91;;;4.30;86.82
26083;BME280;13848;49.018;12.078;2024-03-29T02:08:39;96331.84;;;4.21;86.76
26083;BME280;13848;49.018;12.078;2024-03-29T02:11:06;96340.66;;;4.21;86.75
26083;BME280;13848;49.018;12.078;2024-03-29T02:13:32;96357.34;;;4.10;86.34
26083;BME280;13848;49.018;12.078;2024-03-29T02:15:59;96359.44;;;4.02;87.14
26083;BME280;13848;49.018;12.078;2024-03-29T02:18:25;96356.72;;;4.15;86.76
26083;BME280;13848;49.018;12.078;2024-03-29T02:20:51;96342.97;;;4.18;85.84
26083;BME280;13848;49.018;12.078;2024-03-29T02:23:20;96333.06;;;4.25;86.34
26083;BME280;13848;49.018;12.078;2024-03-29T02:25:53;96328.22;;;4.09;87.19
26083;BME280;13848;49.018;12.078;2024-03-29T02:28:20;96318.09;;;4.17;85.91
26083;BME280;13848;49.018;12.078;2024-03-29T02:30:49;96307.66;;;4.16;85.72
26083;BME280;13848;49.018;12.078;2024-03-29T02:33:15;96315.16;;;4.00;86.12
26083;BME280;13848;49.018;12.078;2024-03-29T02:35:41;96302.78;;;4.13;86.41
26083;BME280;13848;49.018;12.078;2024-03-29T02:38:07;96304.13;;;4.22;85.75
26083;BME280;13848;49.018;12.078;2024-03-29T02:40:33;96294.94;;;4.18;85.41
26083;BME280;13848;49.018;12.078;2024-03-29T02:43:00;96302.78;;;4.13;85.85
26083;BME280;13848;49.018;12.078;2024-03-29T02:45:26;96301.94;;;4.12;85.78
26083;BME280;13848;49.018;12.078;2024-03-29T02:47:52;96313.09;;;4.03;85.72
26083;BME280;13848;49.018;12.078;2024-03-29T02:50:18;96313.25;;;4.08;85.86
26083;BME280;13848;49.018;12.078;2024-03-29T02:52:44;96303.13;;;4.16;85.80
26083;BME280;13848;49.018;12.078;2024-03-29T02:55:10;96298.78;;;4.22;85.10
26083;BME280;13848;49.018;12.078;2024-03-29T02:57:36;96288.75;;;4.17;84.11
26083;BME280;13848;49.018;12.078;2024-03-29T03:00:04;96284.69;;;4.15;84.94
26083;BME280;13848;49.018;12.078;2024-03-29T03:02:30;96291.44;;;4.17;84.17
26083;BME280;13848;49.018;12.078;2024-03-29T03:04:56;96297.44;;;4.13;84.95
26083;BME280;13848;49.018;12.078;2024-03-29T03:07:22;96298.19;;;4.20;84.57
26083;BME280;13848;49.018;12.078;2024-03-29T03:09:48;96294.09;;;4.24;83.92
26083;BME280;13848;49.018;12.078;2024-03-29T03:12:14;96290.47;;;4.12;84.24
26083;BME280;13848;49.018;12.078;2024-03-29T03:14:41;96298.25;;;4.13;84.84
26083;BME280;13848;49.018;12.078;2024-03-29T03:17:08;96308.53;;;4.10;84.85
26083;BME280;13848;49.018;12.078;2024-03-29T03:19:34;96303.81;;;4.12;84.68
26083;BME280;13848;49.018;12.078;2024-03-29T03:22:00;96296.34;;;4.20;84.28
26083;BME280;13848;49.018;12.078;2024-03-29T03:24:26;96279.34;;;4.15;84.09
26083;BME280;13848;49.018;12.078;2024-03-29T03:26:52;96279.56;;;4.13;84.44
26083;BME280;13848;49.018;12.078;2024-03-29T03:29:18;96298.47;;;4.12;84.18
26083;BME280;13848;49.018;12.078;2024-03-29T03:31:44;96303.75;;;4.18;83.10
26083;BME280;13848;49.018;12.078;2024-03-29T03:34:11;96302.03;;;4.31;83.55
26083;BME280;13848;49.018;12.078;2024-03-29T03:36:37;96299.84;;;4.21;83.42
26083;BME280;13848;49.018;12.078;2024-03-29T03:39:03;96318.72;;;4.19;82.93
26083;BME280;13848;49.018;12.078;2024-03-29T03:41:29;96306.88;;;4.09;83.62
26083;BME280;13848;49.018;12.078;2024-03-29T03:43:55;96302.78;;;4.13;83.61
26083;BME280;13848;49.018;12.078;2024-03-29T03:46:21;96292.16;;;4.06;84.42
26083;BME280;13848;49.018;12.078;2024-03-29T03:48:46;96286.31;;;4.16;83.38
26083;BME280;13848;49.018;12.078;2024-03-29T03:51:14;96286.78;;;4.13;83.46
26083;BME280;13848;49.018;12.078;2024-03-29T03:53:40;96293.78;;;4.07;84.29
26083;BME280;13848;49.018;12.078;2024-03-29T03:56:06;96308.69;;;4.15;83.33
26083;BME280;13848;49.018;12.078;2024-03-29T03:58:32;96316.34;;;4.05;83.90
26083;BME280;13848;49.018;12.078;2024-03-29T04:01:03;96311.88;;;3.98;84.30
26083;BME280;13848;49.018;12.078;2024-03-29T04:03:29;96312.22;;;4.09;83.43
26083;BME280;13848;49.018;12.078;2024-03-29T04:05:55;96308.53;;;4.10;83.30
26083;BME280;13848;49.018;12.078;2024-03-29T04:08:22;96309.81;;;4.00;83.67
26083;BME280;13848;49.018;12.078;2024-03-29T04:10:48;96314.06;;;4.08;83.87
26083;BME280;13848;49.018;12.078;2024-03-29T04:13:14;96304.41;;;4.14;83.33
26083;BME280;13848;49.018;12.078;2024-03-29T04:15:40;96298.28;;;4.07;83.85
26083;BME280;13848;49.018;12.078;2024-03-29T04:18:06;96292.97;;;4.07;83.54
26083;BME280;13848;49.018;12.078;2024-03-29T04:20:32;96284.78;;;4.02;83.79
26083;BME280;13848;49.018;12.078;2024-03-29T04:22:58;96284.44;;;3.91;83.78
26083;BME280;13848;49.018;12.078;2024-03-29T04:25:25;96287.31;;;3.90;84.73
26083;BME280;13848;49.018;12.078;2024-03-29T04:27:52;96281.16;;;3.89;84.38
26083;BME280;13848;49.018;12.078;2024-03-29T04:30:17;96291.88;;;3.76;84.88
26083;BME280;13848;49.018;12.078;2024-03-29T04:32:43;96276.03;;;3.88;84.39
26083;BME280;13848;49.018;12.078;2024-03-29T04:35:09;96280.13;;;3.90;84.70
26083;BME280;13848;49.018;12.078;2024-03-29T04:37:35;96274.19;;;3.88;84.57
26083;BME280;13848;49.018;12.078;2024-03-29T04:40:01;96283.66;;;3.84;84.84
26083;BME280;13848;49.018;12.078;2024-03-29T04:42:29;96283.25;;;3.81;84.72
26083;BME280;13848;49.018;12.078;2024-03-29T04:44:54;96288.38;;;3.82;84.47
26083;BME280;13848;49.018;12.078;2024-03-29T04:47:20;96278.75;;;3.81;84.52
26083;BME280;13848;49.018;12.078;2024-03-29T04:49:46;96286.56;;;3.76;84.61
26083;BME280;13848;49.018;12.078;2024-03-29T04:52:12;96284.09;;;3.74;83.94
26083;BME280;13848;49.018;12.078;2024-03-29T04:54:38;96273.22;;;3.76;84.65
26083;BME280;13848;49.018;12.078;2024-03-29T04:57:04;96268.53;;;3.78;84.08
26083;BME280;13848;49.018;12.078;2024-03-29T04:59:32;96280.88;;;3.66;84.12
26083;BME280;13848;49.018;12.078;2024-03-29T05:01:58;96267.75;;;3.64;84.59
26083;BME280;13848;49.018;12.078;2024-03-29T05:04:24;96278.03;;;3.61;84.59
26083;BME280;13848;49.018;12.078;2024-03-29T05:06:50;96288.25;;;3.64;84.31
26083;BME280;13848;49.018;12.078;2024-03-29T05:09:16;96295.25;;;3.58;84.65
26083;BME280;13848;49.018;12.078;2024-03-29T05:11:42;96292.41;;;3.60;84.66
26083;BME280;13848;49.018;12.078;2024-03-29T05:14:08;96296.50;;;3.56;84.54
26083;BME280;13848;49.018;12.078;2024-03-29T05:16:36;96281.31;;;3.63;84.77
26083;BME280;13848;49.018;12.078;2024-03-29T05:19:01;96279.66;;;3.62;84.36
26083;BME280;13848;49.018;12.078;2024-03-29T05:21:27;96281.25;;;3.69;83.95
26083;BME280;13848;49.018;12.078;2024-03-29T05:23:53;96279.31;;;3.52;84.47
26083;BME280;13848;49.018;12.078;2024-03-29T05:26:19;96277.00;;;3.62;84.24
26083;BME280;13848;49.018;12.078;2024-03-29T05:28:45;96285.81;;;3.62;83.99
26083;BME280;13848;49.018;12.078;2024-03-29T05:31:13;96287.41;;;3.70;84.12
26083;BME280;13848;49.018;12.078;2024-03-29T05:33:40;96290.63;;;3.85;83.35
26083;BME280;13848;49.018;12.078;2024-03-29T05:36:06;96280.31;;;3.95;83.38
26083;BME280;13848;49.018;12.078;2024-03-29T05:38:32;96279.44;;;4.02;82.68
26083;BME280;13848;49.018;12.078;2024-03-29T05:40:58;96285.38;;;4.04;82.37
26083;BME280;13848;49.018;12.078;2024-03-29T05:43:24;96288.94;;;4.22;81.72
26083;BME280;13848;49.018;12.078;2024-03-29T05:45:52;96294.84;;;4.31;81.12
26083;BME280;13848;49.018;12.078;2024-03-29T05:48:18;96290.78;;;4.22;81.82
26083;BME280;13848;49.018;12.078;2024-03-29T05:50:45;96297.72;;;4.30;82.01
26083;BME280;13848;49.018;12.078;2024-03-29T05:53:11;96293.53;;;4.40;80.72
26083;BME280;13848;49.018;12.078;2024-03-29T05:55:37;96297.63;;;4.18;80.75
26083;BME280;13848;49.018;12.078;2024-03-29T05:58:03;96293.81;;;4.00;82.00
26083;BME280;13848;49.018;12.078;2024-03-29T06:00:29;96292.09;;;4.13;81.80
26083;BME280;13848;49.018;12.078;2024-03-29T06:02:55;96284.22;;;4.24;81.53
26083;BME280;13848;49.018;12.078;2024-03-29T06:05:21;96285.94;;;4.12;82.17
26083;BME280;13848;49.018;12.078;2024-03-29T06:07:49;96288.81;;;4.11;82.24
26083;BME280;13848;49.018;12.078;2024-03-29T06:10:15;96275.81;;;4.21;81.34
26083;BME280;13848;49.018;12.078;2024-03-29T06:12:41;96285.38;;;4.35;81.14
26083;BME280;13848;49.018;12.078;2024-03-29T06:15:07;96276.75;;;4.33;80.81
26083;BME280;13848;49.018;12.078;2024-03-29T06:17:33;96261.38;;;4.28;80.63
26083;BME280;13848;49.018;12.078;2024-03-29T06:19:59;96277.44;;;4.22;80.63
26083;BME280;13848;49.018;12.078;2024-03-29T06:22:25;96295.66;;;4.32;81.70
26083;BME280;13848;49.018;12.078;2024-03-29T06:24:52;96292.50;;;4.66;81.36
26083;BME280;13848;49.018;12.078;2024-03-29T06:27:18;96288.72;;;4.74;79.66
26083;BME280;13848;49.018;12.078;2024-03-29T06:29:44;96290.88;;;5.08;78.95
26083;BME280;13848;49.018;12.078;2024-03-29T06:32:10;96303.88;;;5.23;78.06
26083;BME280;13848;49.018;12.078;2024-03-29T06:34:36;96286.56;;;5.44;77.97
26083;BME280;13848;49.018;12.078;2024-03-29T06:37:03;96296.38;;;5.69;77.35
26083;BME280;13848;49.018;12.078;2024-03-29T06:39:29;96296.25;;;5.45;77.30
26083;BME280;13848;49.018;12.078;2024-03-29T06:41:56;96299.34;;;5.42;76.18
26083;BME280;13848;49.018;12.078;2024-03-29T06:44:22;96303.53;;;5.68;77.42
26083;BME280;13848;49.018;12.078;2024-03-29T06:46:48;96306.59;;;5.72;76.34
26083;BME280;13848;49.018;12.078;2024-03-29T06:49:14;96299.09;;;5.80;75.54
26083;BME280;13848;49.018;12.078;2024-03-29T06:51:40;96304.66;;;5.60;75.50
26083;BME280;13848;49.018;12.078;2024-03-29T06:54:06;96270.97;;;5.59;75.99
26083;BME280;13848;49.018;12.078;2024-03-29T06:56:32;96278.91;;;5.48;76.08
26083;BME280;13848;49.018;12.078;2024-03-29T06:59:00;96283.06;;;5.44;75.97
26083;BME280;13848;49.018;12.078;2024-03-29T07:01:26;96282.66;;;5.47;76.62
26083;BME280;13848;49.018;12.078;2024-03-29T07:03:52;96307.34;;;5.60;76.23
26083;BME280;13848;49.018;12.078;2024-03-29T07:06:18;96299.31;;;5.60;75.89
26083;BME280;13848;49.018;12.078;2024-03-29T07:08:44;96308.25;;;5.54;75.95
26083;BME280;13848;49.018;12.078;2024-03-29T07:11:10;96311.88;;;5.60;76.48
26083;BME280;13848;49.018;12.078;2024-03-29T07:13:36;96323.16;;;5.62;75.57
26083;BME280;13848;49.018;12.078;2024-03-29T07:16:04;96312.53;;;5.55;76.20
26083;BME280;13848;49.018;12.078;2024-03-29T07:18:30;96338.38;;;5.61;76.12
26083;BME280;13848;49.018;12.078;2024-03-29T07:20:56;96336.03;;;5.53;76.58
26083;BME280;13848;49.018;12.078;2024-03-29T07:23:22;96327.28;;;5.46;77.75
26083;BME280;13848;49.018;12.078;2024-03-29T07:25:57;96307.50;;;5.66;76.83
26083;BME280;13848;49.018;12.078;2024-03-29T07:28:24;96314.78;;;5.40;77.41
26083;BME280;13848;49.018;12.078;2024-03-29T07:30:50;96308.09;;;5.49;77.03
26083;BME280;13848;49.018;12.078;2024-03-29T07:33:17;96307.13;;;5.62;76.87
26083;BME280;13848;49.018;12.078;2024-03-29T07:35:43;96293.97;;;5.60;77.32
26083;BME280;13848;49.018;12.078;2024-03-29T07:38:09;96299.94;;;5.63;77.04
26083;BME280;13848;49.018;12.078;2024-03-29T07:40:35;96280.22;;;5.75;76.96
26083;BME280;13848;49.018;12.078;2024-03-29T07:43:01;96275.56;;;5.71;77.30
26083;BME280;13848;49.018;12.078;2024-03-29T07:45:27;96267.78;;;5.99;76.51
26083;BME280;13848;49.018;12.078;2024-03-29T07:47:53;96255.84;;;6.13;76.18
26083;BME280;13848;49.018;12.078;2024-03-29T07:50:20;96264.59;;;6.21;75.53
26083;BME280;13848;49.018;12.078;2024-03-29T07:52:46;96274.47;;;6.20;76.09
26083;BME280;13848;49.018;12.078;2024-03-29T07:55:12;96262.56;;;6.46;75.06
26083;BME280;13848;49.018;12.078;2024-03-29T07:57:38;96270.47;;;6.53;74.12
26083;BME280;13848;49.018;12.078;2024-03-29T08:00:06;96254.88;;;6.50;74.93
26083;BME280;13848;49.018;12.078;2024-03-29T08:02:32;96255.03;;;6.90;73.37
26083;BME280;13848;49.018;12.078;2024-03-29T08:04:58;96263.75;;;6.97;73.31
26083;BME280;13848;49.018;12.078;2024-03-29T08:07:25;96270.34;;;7.30;71.28
26083;BME280;13848;49.018;12.078;2024-03-29T08:09:51;96272.25;;;7.58;71.05
26083;BME280;13848;49.018;12.078;2024-03-29T08:12:17;96270.41;;;7.87;69.77
26083;BME280;13848;49.018;12.078;2024-03-29T08:14:43;96264.03;;;8.05;68.30
26083;BME280;13848;49.018;12.078;2024-03-29T08:17:09;96260.09;;;8.07;67.75
26083;BME280;13848;49.018;12.078;2024-03-29T08:19:35;96266.59;;;8.28;67.24
26083;BME280;13848;49.018;12.078;2024-03-29T08:22:01;96276.06;;;8.31;67.31
26083;BME280;13848;49.018;12.078;2024-03-29T08:24:29;96287.03;;;8.74;67.20
26083;BME280;13848;49.018;12.078;2024-03-29T08:26:55;96281.00;;;8.67;66.43
26083;BME280;13848;49.018;12.078;2024-03-29T08:29:20;96267.63;;;9.06;64.90
26083;BME280;13848;49.018;12.078;2024-03-29T08:31:46;96270.00;;;9.41;63.55
26083;BME280;13848;49.018;12.078;2024-03-29T08:34:12;96270.25;;;9.01;63.83
26083;BME280;13848;49.018;12.078;2024-03-29T08:36:38;96282.63;;;8.85;64.69
26083;BME280;13848;49.018;12.078;2024-03-29T08:39:04;96271.31;;;9.00;64.70
26083;BME280;13848;49.018;12.078;2024-03-29T08:41:32;96270.59;;;9.26;63.12
26083;BME280;13848;49.018;12.078;2024-03-29T08:43:58;96282.47;;;8.92;63.62
26083;BME280;13848;49.018;12.078;2024-03-29T08:46:23;96275.56;;;9.35;63.28
26083;BME280;13848;49.018;12.078;2024-03-29T08:48:49;96277.94;;;9.53;62.33
26083;BME280;13848;49.018;12.078;2024-03-29T08:51:15;96273.69;;;9.35;62.79
26083;BME280;13848;49.018;12.078;2024-03-29T08:53:41;96279.25;;;9.28;61.73
26083;BME280;13848;49.018;12.078;2024-03-29T08:56:07;96254.91;;;9.62;63.26
26083;BME280;13848;49.018;12.078;2024-03-29T08:58:34;96282.78;;;9.51;61.93
26083;BME280;13848;49.018;12.078;2024-03-29T09:01:00;96281.41;;;9.70;62.00
26083;BME280;13848;49.018;12.078;2024-03-29T09:03:26;96283.16;;;9.81;62.65
26083;BME280;13848;49.018;12.078;2024-03-29T09:05:52;96282.63;;;9.84;62.72
26083;BME280;13848;49.018;12.078;2024-03-29T09:08:18;96312.94;;;9.75;61.47
26083;BME280;13848;49.018;12.078;2024-03-29T09:10:44;96294.84;;;9.70;62.31
26083;BME280;13848;49.018;12.078;2024-03-29T09:13:10;96287.53;;;9.88;61.80
26083;BME280;13848;49.018;12.078;2024-03-29T09:15:38;96293.47;;;9.90;62.26
26083;BME280;13848;49.018;12.078;2024-03-29T09:18:04;96303.22;;;9.96;62.46
26083;BME280;13848;49.018;12.078;2024-03-29T09:20:30;96303.22;;;9.96;61.09
26083;BME280;13848;49.018;12.078;2024-03-29T09:22:56;96302.94;;;9.92;61.99
26083;BME280;13848;49.018;12.078;2024-03-29T09:25:22;96313.81;;;9.80;62.66
26083;BME280;13848;49.018;12.078;2024-03-29T09:27:48;96310.19;;;9.70;62.53
26083;BME280;13848;49.018;12.078;2024-03-29T09:30:14;96295.78;;;9.81;62.73
26083;BME280;13848;49.018;12.078;2024-03-29T09:32:41;96304.75;;;9.86;62.74
26083;BME280;13848;49.018;12.078;2024-03-29T09:35:07;96307.06;;;9.78;62.75
26083;BME280;13848;49.018;12.078;2024-03-29T09:37:33;96292.72;;;9.72;63.89
26083;BME280;13848;49.018;12.078;2024-03-29T09:39:59;96293.03;;;9.98;62.49
26083;BME280;13848;49.018;12.078;2024-03-29T09:42:25;96282.88;;;10.05;62.44
26083;BME280;13848;49.018;12.078;2024-03-29T09:44:52;96266.13;;;10.03;63.26
26083;BME280;13848;49.018;12.078;2024-03-29T09:47:21;96265.06;;;10.26;62.19
26083;BME280;13848;49.018;12.078;2024-03-29T09:49:49;96268.50;;;10.21;62.06
26083;BME280;13848;49.018;12.078;2024-03-29T09:52:16;96269.63;;;10.25;61.72
26083;BME280;13848;49.018;12.078;2024-03-29T09:54:42;96271.06;;;10.33;62.34
26083;BME280;13848;49.018;12.078;2024-03-29T09:57:09;96258.75;;;10.15;62.37
26083;BME280;13848;49.018;12.078;2024-03-29T09:59:36;96257.81;;;10.26;61.22
26083;BME280;13848;49.018;12.078;2024-03-29T10:02:04;96241.41;;;10.28;61.75
26083;BME280;13848;49.018;12.078;2024-03-29T10:04:34;96255.19;;;10.36;60.71
26083;BME280;13848;49.018;12.078;2024-03-29T10:07:03;96243.41;;;10.43;61.47
26083;BME280;13848;49.018;12.078;2024-03-29T10:09:29;96244.22;;;10.43;61.20
26083;BME280;13848;49.018;12.078;2024-03-29T10:11:55;96244.53;;;10.47;61.00
26083;BME280;13848;49.018;12.078;2024-03-29T10:14:21;96258.63;;;10.59;60.06
26083;BME280;13848;49.018;12.078;2024-03-29T10:16:47;96256.75;;;10.59;59.37
26083;BME280;13848;49.018;12.078;2024-03-29T10:19:16;96257.56;;;10.60;59.69
26083;BME280;13848;49.018;12.078;2024-03-29T10:21:42;96254.81;;;10.87;60.33
26083;BME280;13848;49.018;12.078;2024-03-29T10:24:14;96239.41;;;11.19;59.82
26083;BME280;13848;49.018;12.078;2024-03-29T10:26:40;96246.09;;;11.17;59.08
26083;BME280;13848;49.018;12.078;2024-03-29T10:29:06;96242.94;;;11.25;59.01
26083;BME280;13848;49.018;12.078;2024-03-29T10:31:34;96239.75;;;11.38;58.77
26083;BME280;13848;49.018;12.078;2024-03-29T10:34:02;96245.25;;;11.64;57.43
26083;BME280;13848;49.018;12.078;2024-03-29T10:36:29;96250.72;;;11.74;57.93
26083;BME280;13848;49.018;12.078;2024-03-29T10:38:55;96255.09;;;11.85;56.78
26083;BME280;13848;49.018;12.078;2024-03-29T10:41:22;96258.38;;;11.97;56.66
26083;BME280;13848;49.018;12.078;2024-03-29T10:43:49;96256.84;;;12.27;56.09
26083;BME280;13848;49.018;12.078;2024-03-29T10:46:18;96253.63;;;12.45;56.12
26083;BME280;13848;49.018;12.078;2024-03-29T10:48:46;96244.94;;;13.10;54.87
26083;BME280;13848;49.018;12.078;2024-03-29T10:51:13;96254.19;;;12.88;54.10
26083;BME280;13848;49.018;12.078;2024-03-29T10:53:40;96247.56;;;13.61;54.17
26083;BME280;13848;49.018;12.078;2024-03-29T10:56:07;96251.91;;;13.56;52.80
26083;BME280;13848;49.018;12.078;2024-03-29T10:58:37;96248.06;;;13.68;51.95
26083;BME280;13848;49.018;12.078;2024-03-29T11:01:05;96242.25;;;13.35;52.74
26083;BME280;13848;49.018;12.078;2024-03-29T11:03:35;96246.03;;;14.04;52.30
26083;BME280;13848;49.018;12.078;2024-03-29T11:06:04;96250.56;;;14.14;51.61
26083;BME280;13848;49.018;12.078;2024-03-29T11:08:32;96240.75;;;14.28;50.46
26083;BME280;13848;49.018;12.078;2024-03-29T11:10:59;96233.72;;;14.27;49.33
26083;BME280;13848;49.018;12.078;2024-03-29T11:13:27;96230.69;;;13.79;51.98
26083;BME280;13848;49.018;12.078;2024-03-29T11:15:59;96235.38;;;14.18;50.25
26083;BME280;13848;49.018;12.078;2024-03-29T11:18:26;96255.34;;;14.32;50.22
26083;BME280;13848;49.018;12.078;2024-03-29T11:20:53;96255.56;;;14.85;50.56
26083;BME280;13848;49.018;12.078;2024-03-29T11:23:21;96249.31;;;15.42;49.01
26083;BME280;13848;49.018;12.078;2024-03-29T11:25:49;96254.81;;;16.09;47.28
26083;BME280;13848;49.018;12.078;2024-03-29T11:28:22;96247.50;;;15.86;48.46
26083;BME280;13848;49.018;12.078;2024-03-29T11:30:49;96259.38;;;16.14;47.03
26083;BME280;13848;49.018;12.078;2024-03-29T11:33:45;96247.00;;;16.03;46.00
26083;BME280;13848;49.018;12.078;2024-03-29T11:36:12;96247.94;;;17.06;45.11
26083;BME280;13848;49.018;12.078;2024-03-29T11:38:39;96239.53;;;16.32;46.35
26083;BME280;13848;49.018;12.078;2024-03-29T11:41:06;96233.31;;;17.16;45.41
26083;BME280;13848;49.018;12.078;2024-03-29T11:43:34;96218.16;;;18.11;45.06
26083;BME280;13848;49.018;12.078;2024-03-29T11:46:01;96207.97;;;18.39;43.72
26083;BME280;13848;49.018;12.078;2024-03-29T11:48:28;96204.94;;;17.91;43.03
26083;BME280;13848;49.018;12.078;2024-03-29T11:50:56;96203.78;;;18.19;43.42
26083;BME280;13848;49.018;12.078;2024-03-29T11:53:23;96199.66;;;17.67;41.85
26083;BME280;13848;49.018;12.078;2024-03-29T11:55:49;96189.25;;;17.00;43.39
26083;BME280;13848;49.018;12.078;2024-03-29T11:58:15;96172.50;;;17.20;43.05
26083;BME280;13848;49.018;12.078;2024-03-29T12:00:41;96181.75;;;16.92;43.98
26083;BME280;13848;49.018;12.078;2024-03-29T12:03:07;96174.84;;;16.81;43.67
26083;BME280;13848;49.018;12.078;2024-03-29T12:05:33;96172.03;;;16.72;43.22
26083;BME280;13848;49.018;12.078;2024-03-29T12:08:00;96161.50;;;16.65;44.32
26083;BME280;13848;49.018;12.078;2024-03-29T12:10:27;96158.78;;;16.65;44.93
26083;BME280;13848;49.018;12.078;2024-03-29T12:12:55;96137.50;;;16.67;45.53
26083;BME280;13848;49.018;12.078;2024-03-29T12:15:23;96123.44;;;16.93;45.10
26083;BME280;13848;49.018;12.078;2024-03-29T12:17:53;96140.38;;;16.76;44.89
26083;BME280;13848;49.018;12.078;2024-03-29T12:20:19;96154.13;;;16.98;44.60
26083;BME280;13848;49.018;12.078;2024-03-29T12:22:45;96150.50;;;17.03;45.35
26083;BME280;13848;49.018;12.078;2024-03-29T12:25:13;96147.72;;;17.36;44.33
26083;BME280;13848;49.018;12.078;2024-03-29T12:27:39;96150.34;;;17.41;45.15
26083;BME280;13848;49.018;12.078;2024-03-29T12:30:08;96142.72;;;16.96;43.79
26083;BME280;13848;49.018;12.078;2024-03-29T12:32:34;96152.66;;;17.34;44.09
26083;BME280;13848;49.018;12.078;2024-03-29T12:35:07;96151.13;;;17.27;44.38
26083;BME280;13848;49.018;12.078;2024-03-29T12:37:33;96148.69;;;17.67;44.05
26083;BME280;13848;49.018;12.078;2024-03-29T12:39:59;96137.34;;;18.01;43.52
26083;BME280;13848;49.018;12.078;2024-03-29T12:42:26;96124.38;;;18.21;42.73
26083;BME280;13848;49.018;12.078;2024-03-29T12:44:52;96110.88;;;18.92;42.73
26083;BME280;13848;49.018;12.078;2024-03-29T12:47:18;96103.66;;;18.42;41.65
26083;BME280;13848;49.018;12.078;2024-03-29T12:49:45;96099.91;;;18.60;41.39
26083;BME280;13848;49.018;12.078;2024-03-29T12:52:10;96106.47;;;19.13;42.09
26083;BME280;13848;49.018;12.078;2024-03-29T12:54:36;96104.13;;;19.29;41.41